sensor_id;sensor_type;location;lat;lon;timestamp;P1;durP1;ratioP1;P2;durP2;ratioP2
65073;SDS011;52218;51.224;-2.328;2022-10-14T00:02:02;7.07;;;4.47;;
65073;SDS011;52218;51.224;-2.328;2022-10-14T00:05:45;8.32;;;3.90;;
65073;SDS011;52218;51.224;-2.328;2022-10-14T00:09:28;7.63;;;4.32;;
65073;SDS011;52218;51.224;-2.328;2022-10-14T00:13:10;6.20;;;4.53;;
65073;SDS011;52218;51.224;-2.328;2022-10-14T00:16:52;6.55;;;4.20;;
65073;SDS011;52218;51.224;-2.328;2022-10-14T00:20:36;6.68;;;4.00;;
65073;SDS011;52218;51.224;-2.328;2022-10-14T00:24:17;8.07;;;4.30;;
65073;SDS011;52218;51.224;-2.328;2022-10-14T00:27:59;8.68;;;4.57;;
65073;SDS011;52218;51.224;-2.328;2022-10-14T00:31:44;5.40;;;4.00;;
65073;SDS011;52218;51.224;-2.328;2022-10-14T00:35:26;8.68;;;4.00;;
65073;SDS011;52218;51.224;-2.328;2022-10-14T00:39:08;6.90;;;4.40;;
65073;SDS011;52218;51.224;-2.328;2022-10-14T00:42:51;6.03;;;4.55;;
65073;SDS011;52218;51.224;-2.328;2022-10-14T00:46:34;9.57;;;4.10;;
65073;SDS011;52218;51.224;-2.328;2022-10-14T00:50:20;7.10;;;4.43;;
65073;SDS011;52218;51.224;-2.328;2022-10-14T00:54:03;5.80;;;3.95;;
65073;SDS011;52218;51.224;-2.328;2022-10-14T00:57:45;6.25;;;4.40;;
65073;SDS011;52218;51.224;-2.328;2022-10-14T01:01:27;6.75;;;4.20;;
65073;SDS011;52218;51.224;-2.328;2022-10-14T01:05:10;7.32;;;4.50;;
65073;SDS011;52218;51.224;-2.328;2022-10-14T01:09:01;8.73;;;4.55;;
65073;SDS011;52218;51.224;-2.328;2022-10-14T01:21:55;9.48;;;4.18;;
65073;SDS011;52218;51.224;-2.328;2022-10-14T01:25:28;8.95;;;4.00;;
65073;SDS011;52218;51.224;-2.328;2022-10-14T01:29:26;8.10;;;4.15;;
65073;SDS011;52218;51.224;-2.328;2022-10-14T01:33:39;6.45;;;4.00;;
65073;SDS011;52218;51.224;-2.328;2022-10-14T01:37:24;5.65;;;3.63;;
65073;SDS011;52218;51.224;-2.328;2022-10-14T01:41:28;8.20;;;3.63;;
65073;SDS011;52218;51.224;-2.328;2022-10-14T01:45:15;4.47;;;3.35;;
65073;SDS011;52218;51.224;-2.328;2022-10-14T01:49:03;6.10;;;3.53;;
65073;SDS011;52218;51.224;-2.328;2022-10-14T01:52:55;5.10;;;3.22;;
65073;SDS011;52218;51.224;-2.328;2022-10-14T01:56:42;7.60;;;3.38;;
65073;SDS011;52218;51.224;-2.328;2022-10-14T02:00:26;6.25;;;3.22;;
65073;SDS011;52218;51.224;-2.328;2022-10-14T02:04:18;4.43;;;3.28;;
65073;SDS011;52218;51.224;-2.328;2022-10-14T02:08:11;6.30;;;3.35;;
65073;SDS011;52218;51.224;-2.328;2022-10-14T02:16:18;7.20;;;3.08;;
65073;SDS011;52218;51.224;-2.328;2022-10-14T02:20:53;5.25;;;2.80;;
65073;SDS011;52218;51.224;-2.328;2022-10-14T02:24:27;5.95;;;3.05;;
65073;SDS011;52218;51.224;-2.328;2022-10-14T02:28:18;5.78;;;2.97;;
65073;SDS011;52218;51.224;-2.328;2022-10-14T02:32:03;5.45;;;2.60;;
65073;SDS011;52218;51.224;-2.328;2022-10-14T02:35:48;5.07;;;3.03;;
65073;SDS011;52218;51.224;-2.328;2022-10-14T02:39:33;5.13;;;3.08;;
65073;SDS011;52218;51.224;-2.328;2022-10-14T02:43:19;5.13;;;2.85;;
65073;SDS011;52218;51.224;-2.328;2022-10-14T02:47:01;6.50;;;3.10;;
65073;SDS011;52218;51.224;-2.328;2022-10-14T02:50:43;4.75;;;2.90;;
65073;SDS011;52218;51.224;-2.328;2022-10-14T02:54:25;6.18;;;2.85;;
65073;SDS011;52218;51.224;-2.328;2022-10-14T02:58:07;5.15;;;2.70;;
65073;SDS011;52218;51.224;-2.328;2022-10-14T03:01:49;4.85;;;2.60;;
65073;SDS011;52218;51.224;-2.328;2022-10-14T03:05:31;4.75;;;2.55;;
65073;SDS011;52218;51.224;-2.328;2022-10-14T03:09:13;6.75;;;2.85;;
65073;SDS011;52218;51.224;-2.328;2022-10-14T03:12:55;3.67;;;2.53;;
65073;SDS011;52218;51.224;-2.328;2022-10-14T03:16:37;4.28;;;2.53;;
65073;SDS011;52218;51.224;-2.328;2022-10-14T03:20:19;3.28;;;2.35;;
65073;SDS011;52218;51.224;-2.328;2022-10-14T03:24:01;6.05;;;2.58;;
65073;SDS011;52218;51.224;-2.328;2022-10-14T03:27:43;4.65;;;2.67;;
65073;SDS011;52218;51.224;-2.328;2022-10-14T03:31:25;4.53;;;2.40;;
65073;SDS011;52218;51.224;-2.328;2022-10-14T03:35:07;3.88;;;2.60;;
65073;SDS011;52218;51.224;-2.328;2022-10-14T03:38:49;6.07;;;2.67;;
65073;SDS011;52218;51.224;-2.328;2022-10-14T03:42:31;4.20;;;2.40;;
65073;SDS011;52218;51.224;-2.328;2022-10-14T03:46:13;4.18;;;2.70;;
65073;SDS011;52218;51.224;-2.328;2022-10-14T03:49:55;4.22;;;2.38;;
65073;SDS011;52218;51.224;-2.328;2022-10-14T03:53:36;4.45;;;2.45;;
65073;SDS011;52218;51.224;-2.328;2022-10-14T03:57:18;4.50;;;2.50;;
65073;SDS011;52218;51.224;-2.328;2022-10-14T04:01:00;4.38;;;2.35;;
65073;SDS011;52218;51.224;-2.328;2022-10-14T04:04:42;7.30;;;2.55;;
65073;SDS011;52218;51.224;-2.328;2022-10-14T04:08:24;4.32;;;2.53;;
65073;SDS011;52218;51.224;-2.328;2022-10-14T04:12:06;3.92;;;2.50;;
65073;SDS011;52218;51.224;-2.328;2022-10-14T04:15:48;5.50;;;2.60;;
65073;SDS011;52218;51.224;-2.328;2022-10-14T04:19:30;4.30;;;2.40;;
65073;SDS011;52218;51.224;-2.328;2022-10-14T04:23:12;4.18;;;2.50;;
65073;SDS011;52218;51.224;-2.328;2022-10-14T04:26:54;4.95;;;2.33;;
65073;SDS011;52218;51.224;-2.328;2022-10-14T04:30:35;4.40;;;2.70;;
65073;SDS011;52218;51.224;-2.328;2022-10-14T04:34:17;4.68;;;2.72;;
65073;SDS011;52218;51.224;-2.328;2022-10-14T04:37:59;3.53;;;2.40;;
65073;SDS011;52218;51.224;-2.328;2022-10-14T04:41:41;3.42;;;2.05;;
65073;SDS011;52218;51.224;-2.328;2022-10-14T04:45:23;4.40;;;2.45;;
65073;SDS011;52218;51.224;-2.328;2022-10-14T04:49:07;3.72;;;2.15;;
65073;SDS011;52218;51.224;-2.328;2022-10-14T04:52:49;3.17;;;2.28;;
65073;SDS011;52218;51.224;-2.328;2022-10-14T04:56:31;4.20;;;2.30;;
65073;SDS011;52218;51.224;-2.328;2022-10-14T05:00:13;4.45;;;2.30;;
65073;SDS011;52218;51.224;-2.328;2022-10-14T05:03:56;4.43;;;2.53;;
65073;SDS011;52218;51.224;-2.328;2022-10-14T05:07:37;3.30;;;2.25;;
65073;SDS011;52218;51.224;-2.328;2022-10-14T05:11:19;2.83;;;2.28;;
65073;SDS011;52218;51.224;-2.328;2022-10-14T05:15:01;5.40;;;2.85;;
65073;SDS011;52218;51.224;-2.328;2022-10-14T05:18:45;3.90;;;2.75;;
65073;SDS011;52218;51.224;-2.328;2022-10-14T05:22:27;3.90;;;2.75;;
65073;SDS011;52218;51.224;-2.328;2022-10-14T05:26:09;3.47;;;2.40;;
65073;SDS011;52218;51.224;-2.328;2022-10-14T05:29:51;3.22;;;2.60;;
65073;SDS011;52218;51.224;-2.328;2022-10-14T05:33:33;3.83;;;2.95;;
65073;SDS011;52218;51.224;-2.328;2022-10-14T05:37:15;5.15;;;2.70;;
65073;SDS011;52218;51.224;-2.328;2022-10-14T05:40:56;4.95;;;2.70;;
65073;SDS011;52218;51.224;-2.328;2022-10-14T05:44:38;4.63;;;2.53;;
65073;SDS011;52218;51.224;-2.328;2022-10-14T05:48:20;4.03;;;2.40;;
65073;SDS011;52218;51.224;-2.328;2022-10-14T05:52:02;4.35;;;2.80;;
65073;SDS011;52218;51.224;-2.328;2022-10-14T05:55:44;4.55;;;2.65;;
65073;SDS011;52218;51.224;-2.328;2022-10-14T05:59:26;3.35;;;2.63;;
65073;SDS011;52218;51.224;-2.328;2022-10-14T06:03:10;3.45;;;2.60;;
65073;SDS011;52218;51.224;-2.328;2022-10-14T06:06:53;4.75;;;3.13;;
65073;SDS011;52218;51.224;-2.328;2022-10-14T06:10:35;5.15;;;2.95;;
65073;SDS011;52218;51.224;-2.328;2022-10-14T06:14:17;4.25;;;3.20;;
65073;SDS011;52218;51.224;-2.328;2022-10-14T06:17:59;4.10;;;2.92;;
65073;SDS011;52218;51.224;-2.328;2022-10-14T06:21:41;5.50;;;3.10;;
65073;SDS011;52218;51.224;-2.328;2022-10-14T06:25:25;4.38;;;2.92;;
65073;SDS011;52218;51.224;-2.328;2022-10-14T06:29:07;5.30;;;3.03;;
65073;SDS011;52218;51.224;-2.328;2022-10-14T06:32:51;4.63;;;2.95;;
65073;SDS011;52218;51.224;-2.328;2022-10-14T06:36:34;3.38;;;2.70;;
65073;SDS011;52218;51.224;-2.328;2022-10-14T06:40:17;4.50;;;2.80;;
65073;SDS011;52218;51.224;-2.328;2022-10-14T06:43:59;5.07;;;2.78;;
65073;SDS011;52218;51.224;-2.328;2022-10-14T06:47:41;4.00;;;3.00;;
65073;SDS011;52218;51.224;-2.328;2022-10-14T06:51:23;4.45;;;2.90;;
65073;SDS011;52218;51.224;-2.328;2022-10-14T06:55:06;5.05;;;2.97;;
65073;SDS011;52218;51.224;-2.328;2022-10-14T06:58:51;6.28;;;3.33;;
65073;SDS011;52218;51.224;-2.328;2022-10-14T07:02:34;3.70;;;2.80;;
65073;SDS011;52218;51.224;-2.328;2022-10-14T07:06:19;4.03;;;2.85;;
65073;SDS011;52218;51.224;-2.328;2022-10-14T07:10:00;4.25;;;2.72;;
65073;SDS011;52218;51.224;-2.328;2022-10-14T07:13:42;3.35;;;2.60;;
65073;SDS011;52218;51.224;-2.328;2022-10-14T07:17:25;4.43;;;2.50;;
65073;SDS011;52218;51.224;-2.328;2022-10-14T07:21:07;3.85;;;2.55;;
65073;SDS011;52218;51.224;-2.328;2022-10-14T07:24:49;4.30;;;2.38;;
65073;SDS011;52218;51.224;-2.328;2022-10-14T07:28:31;4.10;;;2.50;;
65073;SDS011;52218;51.224;-2.328;2022-10-14T07:32:14;3.40;;;2.17;;
65073;SDS011;52218;51.224;-2.328;2022-10-14T07:35:59;2.85;;;2.03;;
65073;SDS011;52218;51.224;-2.328;2022-10-14T07:39:45;2.47;;;1.70;;
65073;SDS011;52218;51.224;-2.328;2022-10-14T07:43:28;2.60;;;1.75;;
65073;SDS011;52218;51.224;-2.328;2022-10-14T07:47:10;5.55;;;1.80;;
65073;SDS011;52218;51.224;-2.328;2022-10-14T07:50:53;2.53;;;1.60;;
65073;SDS011;52218;51.224;-2.328;2022-10-14T07:54:35;2.13;;;1.40;;
65073;SDS011;52218;51.224;-2.328;2022-10-14T07:58:18;2.95;;;1.80;;
65073;SDS011;52218;51.224;-2.328;2022-10-14T08:02:01;3.20;;;1.73;;
65073;SDS011;52218;51.224;-2.328;2022-10-14T08:05:44;3.83;;;1.83;;
65073;SDS011;52218;51.224;-2.328;2022-10-14T08:09:27;2.83;;;1.80;;
65073;SDS011;52218;51.224;-2.328;2022-10-14T08:13:10;4.40;;;2.05;;
65073;SDS011;52218;51.224;-2.328;2022-10-14T08:16:52;2.95;;;1.90;;
65073;SDS011;52218;51.224;-2.328;2022-10-14T08:20:34;3.75;;;2.20;;
65073;SDS011;52218;51.224;-2.328;2022-10-14T08:24:16;6.03;;;2.38;;
65073;SDS011;52218;51.224;-2.328;2022-10-14T08:27:58;3.10;;;2.13;;
65073;SDS011;52218;51.224;-2.328;2022-10-14T08:31:40;3.60;;;2.30;;
65073;SDS011;52218;51.224;-2.328;2022-10-14T08:35:22;3.20;;;2.33;;
65073;SDS011;52218;51.224;-2.328;2022-10-14T08:39:04;4.45;;;2.28;;
65073;SDS011;52218;51.224;-2.328;2022-10-14T08:42:52;4.03;;;2.45;;
65073;SDS011;52218;51.224;-2.328;2022-10-14T08:46:45;3.40;;;2.30;;
65073;SDS011;52218;51.224;-2.328;2022-10-14T08:50:35;4.03;;;2.17;;
65073;SDS011;52218;51.224;-2.328;2022-10-14T08:54:27;3.75;;;2.42;;
65073;SDS011;52218;51.224;-2.328;2022-10-14T08:58:37;5.22;;;2.47;;
65073;SDS011;52218;51.224;-2.328;2022-10-14T09:02:31;2.95;;;2.30;;
65073;SDS011;52218;51.224;-2.328;2022-10-14T09:06:19;3.33;;;2.58;;
65073;SDS011;52218;51.224;-2.328;2022-10-14T09:10:10;3.20;;;2.38;;
65073;SDS011;52218;51.224;-2.328;2022-10-14T09:13:56;3.47;;;2.25;;
65073;SDS011;52218;51.224;-2.328;2022-10-14T09:22:07;2.65;;;2.20;;
65073;SDS011;52218;51.224;-2.328;2022-10-14T09:25:55;2.60;;;2.40;;
65073;SDS011;52218;51.224;-2.328;2022-10-14T09:33:33;2.47;;;1.95;;
65073;SDS011;52218;51.224;-2.328;2022-10-14T09:37:27;4.47;;;2.15;;
65073;SDS011;52218;51.224;-2.328;2022-10-14T09:41:13;3.10;;;2.08;;
65073;SDS011;52218;51.224;-2.328;2022-10-14T09:45:05;2.53;;;2.22;;
65073;SDS011;52218;51.224;-2.328;2022-10-14T09:48:49;3.05;;;2.10;;
65073;SDS011;52218;51.224;-2.328;2022-10-14T09:52:32;3.10;;;2.15;;
65073;SDS011;52218;51.224;-2.328;2022-10-14T09:56:14;2.60;;;2.08;;
65073;SDS011;52218;51.224;-2.328;2022-10-14T10:00:02;3.60;;;2.30;;
65073;SDS011;52218;51.224;-2.328;2022-10-14T10:03:47;2.50;;;1.90;;
65073;SDS011;52218;51.224;-2.328;2022-10-14T10:07:31;2.15;;;1.70;;
65073;SDS011;52218;51.224;-2.328;2022-10-14T10:11:15;2.10;;;1.65;;
65073;SDS011;52218;51.224;-2.328;2022-10-14T10:15:19;3.63;;;1.50;;
65073;SDS011;52218;51.224;-2.328;2022-10-14T10:19:24;0.85;;;0.70;;
65073;SDS011;52218;51.224;-2.328;2022-10-14T10:23:22;0.40;;;0.20;;
65073;SDS011;52218;51.224;-2.328;2022-10-14T10:27:18;0.30;;;0.20;;
65073;SDS011;52218;51.224;-2.328;2022-10-14T10:43:36;0.32;;;0.10;;
65073;SDS011;52218;51.224;-2.328;2022-10-14T10:47:40;0.30;;;0.20;;
65073;SDS011;52218;51.224;-2.328;2022-10-14T11:00:02;0.20;;;0.10;;
65073;SDS011;52218;51.224;-2.328;2022-10-14T11:04:02;0.20;;;0.10;;
65073;SDS011;52218;51.224;-2.328;2022-10-14T11:08:33;0.73;;;0.20;;
65073;SDS011;52218;51.224;-2.328;2022-10-14T11:13:00;0.20;;;0.10;;
65073;SDS011;52218;51.224;-2.328;2022-10-14T11:33:16;0.43;;;0.20;;
65073;SDS011;52218;51.224;-2.328;2022-10-14T11:41:36;0.50;;;0.13;;
65073;SDS011;52218;51.224;-2.328;2022-10-14T11:49:34;1.77;;;0.20;;
65073;SDS011;52218;51.224;-2.328;2022-10-14T11:53:32;0.55;;;0.20;;
65073;SDS011;52218;51.224;-2.328;2022-10-14T11:57:43;1.05;;;0.30;;
65073;SDS011;52218;51.224;-2.328;2022-10-14T12:01:29;0.20;;;0.20;;
65073;SDS011;52218;51.224;-2.328;2022-10-14T12:09:30;2.20;;;0.30;;
65073;SDS011;52218;51.224;-2.328;2022-10-14T12:13:45;0.93;;;0.30;;
65073;SDS011;52218;51.224;-2.328;2022-10-14T12:17:29;1.35;;;0.40;;
65073;SDS011;52218;51.224;-2.328;2022-10-14T12:21:20;2.80;;;0.50;;
65073;SDS011;52218;51.224;-2.328;2022-10-14T12:25:11;2.25;;;0.82;;
65073;SDS011;52218;51.224;-2.328;2022-10-14T12:28:57;3.13;;;0.75;;
65073;SDS011;52218;51.224;-2.328;2022-10-14T12:33:02;1.65;;;0.60;;
65073;SDS011;52218;51.224;-2.328;2022-10-14T12:36:49;4.05;;;0.70;;
65073;SDS011;52218;51.224;-2.328;2022-10-14T12:40:31;3.45;;;1.75;;
65073;SDS011;52218;51.224;-2.328;2022-10-14T12:44:17;3.53;;;1.50;;
65073;SDS011;52218;51.224;-2.328;2022-10-14T12:48:14;5.05;;;1.58;;
65073;SDS011;52218;51.224;-2.328;2022-10-14T12:52:03;3.10;;;1.50;;
65073;SDS011;52218;51.224;-2.328;2022-10-14T12:55:52;3.60;;;1.33;;
65073;SDS011;52218;51.224;-2.328;2022-10-14T12:59:36;2.75;;;1.48;;
65073;SDS011;52218;51.224;-2.328;2022-10-14T13:03:22;3.03;;;1.42;;
65073;SDS011;52218;51.224;-2.328;2022-10-14T13:07:13;3.58;;;1.30;;
65073;SDS011;52218;51.224;-2.328;2022-10-14T13:11:31;2.50;;;0.82;;
65073;SDS011;52218;51.224;-2.328;2022-10-14T13:15:36;1.55;;;0.70;;
65073;SDS011;52218;51.224;-2.328;2022-10-14T13:23:18;2.75;;;0.88;;
65073;SDS011;52218;51.224;-2.328;2022-10-14T13:27:14;2.80;;;0.73;;
65073;SDS011;52218;51.224;-2.328;2022-10-14T13:31:11;2.47;;;0.57;;
65073;SDS011;52218;51.224;-2.328;2022-10-14T13:39:01;1.80;;;0.50;;
65073;SDS011;52218;51.224;-2.328;2022-10-14T13:42:43;2.58;;;0.60;;
65073;SDS011;52218;51.224;-2.328;2022-10-14T13:46:34;2.22;;;0.60;;
65073;SDS011;52218;51.224;-2.328;2022-10-14T13:50:21;1.67;;;0.43;;
65073;SDS011;52218;51.224;-2.328;2022-10-14T14:01:58;3.47;;;0.82;;
65073;SDS011;52218;51.224;-2.328;2022-10-14T14:05:42;1.65;;;0.80;;
65073;SDS011;52218;51.224;-2.328;2022-10-14T14:09:25;1.65;;;0.50;;
65073;SDS011;52218;51.224;-2.328;2022-10-14T14:13:09;2.80;;;0.90;;
65073;SDS011;52218;51.224;-2.328;2022-10-14T14:16:54;2.05;;;0.60;;
65073;SDS011;52218;51.224;-2.328;2022-10-14T14:20:38;1.35;;;0.45;;
65073;SDS011;52218;51.224;-2.328;2022-10-14T14:24:23;1.95;;;0.45;;
65073;SDS011;52218;51.224;-2.328;2022-10-14T14:28:10;2.70;;;0.73;;
65073;SDS011;52218;51.224;-2.328;2022-10-14T14:31:56;2.90;;;0.90;;
65073;SDS011;52218;51.224;-2.328;2022-10-14T14:36:01;1.85;;;0.50;;
65073;SDS011;52218;51.224;-2.328;2022-10-14T14:39:54;2.20;;;0.40;;
65073;SDS011;52218;51.224;-2.328;2022-10-14T14:43:36;1.00;;;0.40;;
65073;SDS011;52218;51.224;-2.328;2022-10-14T14:47:27;2.25;;;0.40;;
65073;SDS011;52218;51.224;-2.328;2022-10-14T14:51:11;3.97;;;0.50;;
65073;SDS011;52218;51.224;-2.328;2022-10-14T14:54:54;2.60;;;0.50;;
65073;SDS011;52218;51.224;-2.328;2022-10-14T14:58:45;2.95;;;0.63;;
65073;SDS011;52218;51.224;-2.328;2022-10-14T15:02:31;1.25;;;0.50;;
65073;SDS011;52218;51.224;-2.328;2022-10-14T15:06:15;2.35;;;0.65;;
65073;SDS011;52218;51.224;-2.328;2022-10-14T15:09:59;2.20;;;0.65;;
65073;SDS011;52218;51.224;-2.328;2022-10-14T15:13:44;2.40;;;0.70;;
65073;SDS011;52218;51.224;-2.328;2022-10-14T15:17:37;4.72;;;0.85;;
65073;SDS011;52218;51.224;-2.328;2022-10-14T15:21:27;2.63;;;0.65;;
65073;SDS011;52218;51.224;-2.328;2022-10-14T15:25:11;1.70;;;0.80;;
65073;SDS011;52218;51.224;-2.328;2022-10-14T15:29:16;3.92;;;0.80;;
65073;SDS011;52218;51.224;-2.328;2022-10-14T15:33:14;3.08;;;0.98;;
65073;SDS011;52218;51.224;-2.328;2022-10-14T15:36:58;3.50;;;0.93;;
65073;SDS011;52218;51.224;-2.328;2022-10-14T15:40:40;2.10;;;0.70;;
65073;SDS011;52218;51.224;-2.328;2022-10-14T15:44:23;4.75;;;0.88;;
65073;SDS011;52218;51.224;-2.328;2022-10-14T15:48:05;4.95;;;0.80;;
65073;SDS011;52218;51.224;-2.328;2022-10-14T15:51:47;2.92;;;1.13;;
65073;SDS011;52218;51.224;-2.328;2022-10-14T15:55:29;4.95;;;1.10;;
65073;SDS011;52218;51.224;-2.328;2022-10-14T15:59:14;3.42;;;0.93;;
65073;SDS011;52218;51.224;-2.328;2022-10-14T16:02:56;3.72;;;0.98;;
65073;SDS011;52218;51.224;-2.328;2022-10-14T16:06:39;4.72;;;1.00;;
65073;SDS011;52218;51.224;-2.328;2022-10-14T16:10:21;3.80;;;1.48;;
65073;SDS011;52218;51.224;-2.328;2022-10-14T16:14:04;2.67;;;1.00;;
65073;SDS011;52218;51.224;-2.328;2022-10-14T16:17:46;3.45;;;1.20;;
65073;SDS011;52218;51.224;-2.328;2022-10-14T16:21:33;4.53;;;1.15;;
65073;SDS011;52218;51.224;-2.328;2022-10-14T16:25:17;2.00;;;1.15;;
65073;SDS011;52218;51.224;-2.328;2022-10-14T16:29:14;2.70;;;1.30;;
65073;SDS011;52218;51.224;-2.328;2022-10-14T16:32:58;1.80;;;1.10;;
65073;SDS011;52218;51.224;-2.328;2022-10-14T16:36:40;2.92;;;1.20;;
65073;SDS011;52218;51.224;-2.328;2022-10-14T16:40:22;4.20;;;1.58;;
65073;SDS011;52218;51.224;-2.328;2022-10-14T16:44:05;3.35;;;1.30;;
65073;SDS011;52218;51.224;-2.328;2022-10-14T16:47:47;2.85;;;1.58;;
65073;SDS011;52218;51.224;-2.328;2022-10-14T16:51:29;2.90;;;1.40;;
65073;SDS011;52218;51.224;-2.328;2022-10-14T16:55:10;1.88;;;1.08;;
65073;SDS011;52218;51.224;-2.328;2022-10-14T16:58:52;2.47;;;1.48;;
65073;SDS011;52218;51.224;-2.328;2022-10-14T17:02:34;3.97;;;1.80;;
65073;SDS011;52218;51.224;-2.328;2022-10-14T17:06:16;2.30;;;1.30;;
65073;SDS011;52218;51.224;-2.328;2022-10-14T17:10:04;2.45;;;1.48;;
65073;SDS011;52218;51.224;-2.328;2022-10-14T17:13:50;1.98;;;1.38;;
65073;SDS011;52218;51.224;-2.328;2022-10-14T17:21:15;2.25;;;1.23;;
65073;SDS011;52218;51.224;-2.328;2022-10-14T17:24:57;2.45;;;1.20;;
65073;SDS011;52218;51.224;-2.328;2022-10-14T17:28:40;2.90;;;1.15;;
65073;SDS011;52218;51.224;-2.328;2022-10-14T17:32:22;2.03;;;1.02;;
65073;SDS011;52218;51.224;-2.328;2022-10-14T17:36:05;2.00;;;1.00;;
65073;SDS011;52218;51.224;-2.328;2022-10-14T17:39:48;2.03;;;1.10;;
65073;SDS011;52218;51.224;-2.328;2022-10-14T17:43:30;1.83;;;1.10;;
65073;SDS011;52218;51.224;-2.328;2022-10-14T17:47:12;3.38;;;1.33;;
65073;SDS011;52218;51.224;-2.328;2022-10-14T17:50:54;4.88;;;1.10;;
65073;SDS011;52218;51.224;-2.328;2022-10-14T17:54:36;3.15;;;1.10;;
65073;SDS011;52218;51.224;-2.328;2022-10-14T17:58:18;3.75;;;1.63;;
65073;SDS011;52218;51.224;-2.328;2022-10-14T18:02:00;3.67;;;1.40;;
65073;SDS011;52218;51.224;-2.328;2022-10-14T18:05:43;1.95;;;1.20;;
65073;SDS011;52218;51.224;-2.328;2022-10-14T18:09:29;2.33;;;1.45;;
65073;SDS011;52218;51.224;-2.328;2022-10-14T18:13:11;3.25;;;1.45;;
65073;SDS011;52218;51.224;-2.328;2022-10-14T18:16:53;2.53;;;2.00;;
65073;SDS011;52218;51.224;-2.328;2022-10-14T18:20:35;3.80;;;2.20;;
65073;SDS011;52218;51.224;-2.328;2022-10-14T18:24:17;3.10;;;1.85;;
65073;SDS011;52218;51.224;-2.328;2022-10-14T18:28:00;3.15;;;2.00;;
65073;SDS011;52218;51.224;-2.328;2022-10-14T18:31:42;2.72;;;1.80;;
65073;SDS011;52218;51.224;-2.328;2022-10-14T18:35:24;3.35;;;1.60;;
65073;SDS011;52218;51.224;-2.328;2022-10-14T18:39:07;2.58;;;1.38;;
65073;SDS011;52218;51.224;-2.328;2022-10-14T18:42:51;2.35;;;1.35;;
65073;SDS011;52218;51.224;-2.328;2022-10-14T18:46:37;2.85;;;1.35;;
65073;SDS011;52218;51.224;-2.328;2022-10-14T18:50:20;2.40;;;1.40;;
65073;SDS011;52218;51.224;-2.328;2022-10-14T18:54:05;1.90;;;1.33;;
65073;SDS011;52218;51.224;-2.328;2022-10-14T18:57:50;4.47;;;1.60;;
65073;SDS011;52218;51.224;-2.328;2022-10-14T19:01:32;2.90;;;1.40;;
65073;SDS011;52218;51.224;-2.328;2022-10-14T19:05:17;3.25;;;1.48;;
65073;SDS011;52218;51.224;-2.328;2022-10-14T19:09:00;3.72;;;1.67;;
65073;SDS011;52218;51.224;-2.328;2022-10-14T19:12:43;2.50;;;1.60;;
65073;SDS011;52218;51.224;-2.328;2022-10-14T19:16:29;3.67;;;1.85;;
65073;SDS011;52218;51.224;-2.328;2022-10-14T19:20:12;6.65;;;2.40;;
65073;SDS011;52218;51.224;-2.328;2022-10-14T19:23:55;3.55;;;1.80;;
65073;SDS011;52218;51.224;-2.328;2022-10-14T19:27:38;2.80;;;1.98;;
65073;SDS011;52218;51.224;-2.328;2022-10-14T19:31:21;3.35;;;2.17;;
65073;SDS011;52218;51.224;-2.328;2022-10-14T19:35:05;4.53;;;2.42;;
65073;SDS011;52218;51.224;-2.328;2022-10-14T19:38:51;4.85;;;2.53;;
65073;SDS011;52218;51.224;-2.328;2022-10-14T19:42:37;3.97;;;2.60;;
65073;SDS011;52218;51.224;-2.328;2022-10-14T19:46:20;5.10;;;2.80;;
65073;SDS011;52218;51.224;-2.328;2022-10-14T19:50:07;4.25;;;2.20;;
65073;SDS011;52218;51.224;-2.328;2022-10-14T19:53:49;3.25;;;2.35;;
65073;SDS011;52218;51.224;-2.328;2022-10-14T19:57:32;4.32;;;2.30;;
65073;SDS011;52218;51.224;-2.328;2022-10-14T20:01:15;4.60;;;2.38;;
65073;SDS011;52218;51.224;-2.328;2022-10-14T20:04:58;4.43;;;2.45;;
65073;SDS011;52218;51.224;-2.328;2022-10-14T20:08:40;4.22;;;3.00;;
65073;SDS011;52218;51.224;-2.328;2022-10-14T20:12:24;3.78;;;2.83;;
65073;SDS011;52218;51.224;-2.328;2022-10-14T20:16:06;5.15;;;3.22;;
65073;SDS011;52218;51.224;-2.328;2022-10-14T20:19:49;4.10;;;2.83;;
65073;SDS011;52218;51.224;-2.328;2022-10-14T20:23:32;4.75;;;2.83;;
65073;SDS011;52218;51.224;-2.328;2022-10-14T20:27:15;4.55;;;3.10;;
65073;SDS011;52218;51.224;-2.328;2022-10-14T20:30:57;4.47;;;2.97;;
65073;SDS011;52218;51.224;-2.328;2022-10-14T20:34:39;4.40;;;2.70;;
65073;SDS011;52218;51.224;-2.328;2022-10-14T20:38:21;5.20;;;2.83;;
65073;SDS011;52218;51.224;-2.328;2022-10-14T20:42:03;4.43;;;2.97;;
65073;SDS011;52218;51.224;-2.328;2022-10-14T20:45:47;4.85;;;3.10;;
65073;SDS011;52218;51.224;-2.328;2022-10-14T20:49:29;4.05;;;2.78;;
65073;SDS011;52218;51.224;-2.328;2022-10-14T20:53:11;4.38;;;2.90;;
65073;SDS011;52218;51.224;-2.328;2022-10-14T20:56:53;5.43;;;2.97;;
65073;SDS011;52218;51.224;-2.328;2022-10-14T21:00:35;3.72;;;2.70;;
65073;SDS011;52218;51.224;-2.328;2022-10-14T21:04:18;3.90;;;2.60;;
65073;SDS011;52218;51.224;-2.328;2022-10-14T21:08:00;4.13;;;2.50;;
65073;SDS011;52218;51.224;-2.328;2022-10-14T21:11:42;3.78;;;2.50;;
65073;SDS011;52218;51.224;-2.328;2022-10-14T21:15:25;2.92;;;2.33;;
65073;SDS011;52218;51.224;-2.328;2022-10-14T21:19:08;4.82;;;2.63;;
65073;SDS011;52218;51.224;-2.328;2022-10-14T21:22:51;5.28;;;2.78;;
65073;SDS011;52218;51.224;-2.328;2022-10-14T21:26:33;4.38;;;3.05;;
65073;SDS011;52218;51.224;-2.328;2022-10-14T21:30:14;3.88;;;2.50;;
65073;SDS011;52218;51.224;-2.328;2022-10-14T21:33:57;5.35;;;2.53;;
65073;SDS011;52218;51.224;-2.328;2022-10-14T21:37:46;4.07;;;2.47;;
65073;SDS011;52218;51.224;-2.328;2022-10-14T21:41:28;5.35;;;2.83;;
65073;SDS011;52218;51.224;-2.328;2022-10-14T21:45:10;7.95;;;2.35;;
65073;SDS011;52218;51.224;-2.328;2022-10-14T21:48:53;6.75;;;2.95;;
65073;SDS011;52218;51.224;-2.328;2022-10-14T21:52:38;6.15;;;2.58;;
65073;SDS011;52218;51.224;-2.328;2022-10-14T21:56:21;6.80;;;2.72;;
65073;SDS011;52218;51.224;-2.328;2022-10-14T22:00:04;4.78;;;2.65;;
65073;SDS011;52218;51.224;-2.328;2022-10-14T22:03:58;5.25;;;2.78;;
65073;SDS011;52218;51.224;-2.328;2022-10-14T22:07:43;3.65;;;2.40;;
65073;SDS011;52218;51.224;-2.328;2022-10-14T22:15:12;3.55;;;2.63;;
65073;SDS011;52218;51.224;-2.328;2022-10-14T22:18:56;5.10;;;2.65;;
65073;SDS011;52218;51.224;-2.328;2022-10-14T22:22:39;3.35;;;2.30;;
65073;SDS011;52218;51.224;-2.328;2022-10-14T22:26:22;4.35;;;2.65;;
65073;SDS011;52218;51.224;-2.328;2022-10-14T22:30:04;3.15;;;2.13;;
65073;SDS011;52218;51.224;-2.328;2022-10-14T22:33:47;2.50;;;2.17;;
65073;SDS011;52218;51.224;-2.328;2022-10-14T22:37:29;5.53;;;2.22;;
65073;SDS011;52218;51.224;-2.328;2022-10-14T22:41:12;4.75;;;2.55;;
65073;SDS011;52218;51.224;-2.328;2022-10-14T22:44:56;3.53;;;2.30;;
65073;SDS011;52218;51.224;-2.328;2022-10-14T22:48:38;4.20;;;2.38;;
65073;SDS011;52218;51.224;-2.328;2022-10-14T22:52:20;3.22;;;2.30;;
65073;SDS011;52218;51.224;-2.328;2022-10-14T22:56:02;4.78;;;2.40;;
65073;SDS011;52218;51.224;-2.328;2022-10-14T22:59:45;2.97;;;2.13;;
65073;SDS011;52218;51.224;-2.328;2022-10-14T23:03:27;4.80;;;2.50;;
65073;SDS011;52218;51.224;-2.328;2022-10-14T23:07:11;3.92;;;2.38;;
65073;SDS011;52218;51.224;-2.328;2022-10-14T23:10:52;2.88;;;2.10;;
65073;SDS011;52218;51.224;-2.328;2022-10-14T23:14:34;3.35;;;2.08;;
65073;SDS011;52218;51.224;-2.328;2022-10-14T23:18:16;3.50;;;2.38;;
65073;SDS011;52218;51.224;-2.328;2022-10-14T23:21:58;4.57;;;2.20;;
65073;SDS011;52218;51.224;-2.328;2022-10-14T23:25:40;3.97;;;2.45;;
65073;SDS011;52218;51.224;-2.328;2022-10-14T23:29:22;3.30;;;2.28;;
65073;SDS011;52218;51.224;-2.328;2022-10-14T23:33:04;4.10;;;2.75;;
65073;SDS011;52218;51.224;-2.328;2022-10-14T23:36:50;2.85;;;2.25;;
65073;SDS011;52218;51.224;-2.328;2022-10-14T23:40:32;3.25;;;2.58;;
65073;SDS011;52218;51.224;-2.328;2022-10-14T23:44:14;3.00;;;2.20;;
65073;SDS011;52218;51.224;-2.328;2022-10-14T23:47:56;4.60;;;2.58;;
65073;SDS011;52218;51.224;-2.328;2022-10-14T23:51:38;4.20;;;2.33;;